Flight Track Log - Related Links

Times and Time Zones

All times are in EDT time to prevent confusion due to time zone crossing. See the C-GEDA flight status page for this flight to view local times or setup timezone preferences in your user account.

Time Position Orientation Groundspeed Altitude Reporting Facility
EDT Latitude Longitude Course Direction KTS MPH feet Rate Location/Type
Mon 11:57:19 AM 53.8950 -122.6010 80° East 136 157 3,600  Level FlightAware ADS-B
Mon 11:57:49 AM 53.8980 -122.5700 81° East 137 158 4,100 1,043 Climbing FlightAware ADS-B
Mon 11:58:05 AM 53.9000 -122.5540 78° East 135 155 4,400 1,091 Climbing FlightAware ADS-B
Mon 11:58:33 AM 53.9110 -122.5300 52° Northeast 139 160 4,900 1,000 Climbing FlightAware ADS-B
Mon 11:58:53 AM 53.9180 -122.5110 58° Northeast 138 159 5,200 900 Climbing FlightAware ADS-B
Mon 11:59:13 AM 53.9260 -122.4930 53° Northeast 138 159 5,500 453 Climbing FlightAware ADS-B
Mon 11:59:46 AM 53.9370 -122.4690 52° Northeast 137 158 5,600 923 Climbing FlightAware ADS-B
Mon 12:00:05 PM 53.9450 -122.4470 58° Northeast 139 160 6,300 1,622 Climbing FlightAware ADS-B
Mon 12:00:23 PM 53.9520 -122.4320 52° Northeast 139 160 6,600 857 Climbing FlightAware ADS-B
Mon 12:00:47 PM 53.9600 -122.4110 57° Northeast 138 159 6,900 955 Climbing FlightAware ADS-B
Mon 12:01:07 PM 53.9680 -122.3920 54° Northeast 138 159 7,300 938 Climbing FlightAware ADS-B
Mon 12:01:19 PM 53.9720 -122.3820 56° Northeast 137 158 7,400 750 Climbing FlightAware ADS-B
Mon 12:01:39 PM 53.9800 -122.3640 53° Northeast 136 157 7,700 955 Climbing FlightAware ADS-B
Mon 12:02:03 PM 53.9880 -122.3430 57° Northeast 137 158 8,100 1,000 Climbing FlightAware ADS-B
Mon 12:02:21 PM 53.9950 -122.3270 53° Northeast 137 158 8,400 947 Climbing FlightAware ADS-B
Mon 12:02:41 PM 54.0020 -122.3100 55° Northeast 139 160 8,700 789 Climbing FlightAware ADS-B
Mon 12:02:59 PM 54.0090 -122.2930 55° Northeast 140 161 8,900 769 Climbing FlightAware ADS-B
Mon 12:03:20 PM 54.0170 -122.2750 53° Northeast 142 163 9,200 878 Climbing FlightAware ADS-B
Mon 12:03:40 PM 54.0240 -122.2560 58° Northeast 142 163 9,500 900 Climbing FlightAware ADS-B
Mon 12:04:00 PM 54.0320 -122.2380 53° Northeast 142 163 9,800 923 Climbing FlightAware ADS-B
Mon 12:04:32 PM 54.0440 -122.2090 55° Northeast 144 166 10,300 871 Climbing FlightAware ADS-B
Mon 12:05:02 PM 54.0560 -122.1800 55° Northeast 147 169 10,700 636 Climbing FlightAware ADS-B
Mon 12:05:38 PM 54.0710 -122.1440 55° Northeast 164 189 11,000 353 Climbing FlightAware ADS-B
Mon 12:06:10 PM 54.0860 -122.1080 55° Northeast 178 205 11,100 83 Climbing FlightAware ADS-B
Mon 12:06:50 PM 54.1050 -122.0620 55° Northeast 184 212 11,100  Level FlightAware ADS-B
Mon 12:07:26 PM 54.1230 -122.0190 54° Northeast 186 214 11,100  Level FlightAware ADS-B
Mon 12:07:58 PM 54.1390 -121.9800 55° Northeast 189 217 11,100  Level FlightAware ADS-B
Mon 12:08:33 PM 54.1560 -121.9370 56° Northeast 191 220 11,100  Level FlightAware ADS-B
Mon 12:09:10 PM 54.1750 -121.8920 54° Northeast 195 224 11,100  Level FlightAware ADS-B
Mon 12:09:41 PM 54.1910 -121.8530 55° Northeast 196 226 11,100  Level FlightAware ADS-B
Mon 12:10:15 PM 54.2090 -121.8090 55° Northeast 196 226 11,100  Level FlightAware ADS-B
Mon 12:10:54 PM 54.2290 -121.7580 56° Northeast 196 226 11,100  Level FlightAware ADS-B
Mon 12:11:30 PM 54.2470 -121.7140 55° Northeast 197 227 11,100  Level FlightAware ADS-B
Mon 12:11:58 PM 54.2600 -121.6820 55° Northeast 197 227 11,100  Level FlightAware ADS-B
Mon 12:12:46 PM 54.2820 -121.6300 54° Northeast 197 227 11,100  Level FlightAware ADS-B
Mon 12:13:21 PM 54.2970 -121.5920 56° Northeast 197 227 11,100 -63 Level FlightAware ADS-B
Mon 12:14:21 PM 54.3167 -121.4833 56° Northeast 200 230 11,000 -50 Descending Vancouver Center
Mon 12:15:21 PM 54.3500 -121.4167 49° Northeast 200 230 11,000  Level Vancouver Center
Mon 12:16:21 PM 54.3833 -121.3333 55° Northeast 200 230 11,000  Level Vancouver Center
Mon 12:17:21 PM 54.4167 -121.2500 55° Northeast 200 230 11,000  Level Vancouver Center
Mon 12:18:21 PM 54.4500 -121.1833 49° Northeast 200 230 11,000  Level Vancouver Center
Mon 12:19:21 PM 54.4833 -121.1000 55° Northeast 190 219 11,000 -50 Level Vancouver Center
Mon 12:20:21 PM 54.5167 -121.0333 49° Northeast 200 230 10,900 -50 Descending Vancouver Center
Mon 12:21:21 PM 54.5500 -120.9500 55° Northeast 200 230 10,900  Level Vancouver Center
Mon 12:22:21 PM 54.5833 -120.8667 55° Northeast 190 219 10,900  Level Vancouver Center
Mon 12:23:21 PM 54.6167 -120.8000 49° Northeast 200 230 10,900  Level Vancouver Center
Mon 12:24:21 PM 54.6333 -120.7167 71° East 200 230 10,900  Level Vancouver Center
Mon 12:25:21 PM 54.6667 -120.6167 60° Northeast 200 230 10,900  Level Vancouver Center
Mon 12:26:21 PM 54.6833 -120.5667 60° Northeast 200 230 10,900  Level Vancouver Center
Mon 12:27:21 PM 54.7167 -120.4667 60° Northeast 200 230 10,900  Level Vancouver Center
Mon 12:28:21 PM 54.7500 -120.3833 55° Northeast 200 230 10,900  Level Vancouver Center
Mon 12:29:21 PM 54.7833 -120.3167 49° Northeast 190 219 10,900  Level Vancouver Center
Mon 12:30:21 PM 54.8167 -120.2333 55° Northeast 190 219 10,900  Level Vancouver Center
Mon 12:31:21 PM 54.8500 -120.1667 49° Northeast 190 219 10,900 -150 Level Vancouver Center
Mon 12:32:21 PM 54.8667 -120.0833 71° East 200 230 10,600 -400 Descending Vancouver Center
Mon 12:33:21 PM 54.9000 -120.0000 55° Northeast 210 242 10,100 -550 Descending Vancouver Center
Mon 12:34:21 PM 54.9333 -119.9000 60° Northeast 210 242 9,500 -600 Descending Vancouver Center
Mon 12:35:21 PM 54.9667 -119.8500 41° Northeast 210 242 8,900 -550 Descending Vancouver Center
Mon 12:36:21 PM 55.0000 -119.7500 60° Northeast 210 242 8,400 -557 Descending Vancouver Center
Mon 12:37:41 PM 55.0167 -119.7167 49° Northeast 200 230 7,600 -557 Descending Edmonton Center
Mon 12:38:41 PM 55.0500 -119.6333 55° Northeast 200 230 7,100 -300 Descending Edmonton Center
Mon 12:39:41 PM 55.0833 -119.5500 55° Northeast 190 219 7,000 -50 Descending Edmonton Center
Mon 12:40:41 PM 55.1000 -119.4667 71° East 180 207 7,000  Level Edmonton Center
Mon 12:41:41 PM 55.1333 -119.3833 55° Northeast 180 207 7,000  Level Edmonton Center
Mon 12:42:41 PM 55.1500 -119.3333 60° Northeast 170 196 7,000  Level Edmonton Center
Mon 12:43:41 PM 55.1833 -119.2667 49° Northeast 170 196 7,000  Level Edmonton Center
Mon 12:44:41 PM 55.2167 -119.1833 55° Northeast 170 196 7,000  Level Edmonton Center
Mon 12:45:41 PM 55.2333 -119.1333 60° Northeast 170 196 7,000  Level Edmonton Center
Mon 12:46:41 PM 55.2667 -119.0500 55° Northeast 170 196 7,000  Level Edmonton Center
Mon 12:47:41 PM 55.2833 -118.9667 71° East 170 196 7,000 -200 Level Edmonton Center
Mon 12:48:41 PM 55.3333 -118.8833 43° Northeast 180 207 6,600 -400 Descending Edmonton Center
Mon 12:49:41 PM 55.3500 -118.8167 66° East 190 219 6,200 -400 Descending Edmonton Center
Mon 12:50:41 PM 55.3833 -118.7333 55° Northeast 180 207 5,800 -450 Descending Edmonton Center
Mon 12:51:41 PM 55.4167 -118.6833 40° Northeast 180 207 5,300 -500 Descending Edmonton Center
Mon 12:52:41 PM 55.4333 -118.6000 71° East 190 219 4,800 -600 Descending Edmonton Center
Mon 12:53:41 PM 55.4667 -118.5167 55° Northeast 190 219 4,100 -600 Descending Edmonton Center
Mon 12:54:41 PM 55.4833 -118.4333 71° East 180 207 3,600 -300 Descending Edmonton Center
Mon 12:55:41 PM 55.5167 -118.3500 55° Northeast 170 196 3,500 -50 Descending Edmonton Center
Mon 12:56:41 PM 55.5333 -118.3000 59° Northeast 160 184 3,500  Level Edmonton Center
Mon 12:57:41 PM 55.5667 -118.2167 55° Northeast 160 184 3,500 -100 Level Edmonton Center
Mon 12:58:41 PM 55.5833 -118.1667 59° Northeast 150 173 3,300 -200 Descending Edmonton Center
Mon 12:59:41 PM 55.6167 -118.1167 40° Northeast 140 161 3,100 -200 Descending Edmonton Center
Mon 01:01:00 PM 55.6475 -118.0039 64° Northeast  Level FlightAware Approximate
Mon 01:08:00 PM 55.6667 -117.9333 57° Northeast  Level FlightAware Approximate
Mon 01:09:00 PM 55.6667 -117.9333 57° Northeast  Level FlightAware Approximate
Mon 01:10:00 PM 55.6667 -117.9333 57° Northeast  Level FlightAware Approximate
Mon 01:11:00 PM 55.6667 -117.9333 57° Northeast  Level FlightAware Approximate
Mon 01:12:00 PM 55.6667 -117.9333 57° Northeast  Level FlightAware Approximate
Mon 01:13:00 PM 55.6667 -117.9333 57° Northeast  Level FlightAware Approximate
Mon 01:14:00 PM 55.6667 -117.9333 57° Northeast  Level FlightAware Approximate

Login

Don't have an account? Register now (free) for customized features, flight alerts, and more!